Time;durP1;ratioP1;P1;durP2;ratioP2;P2;SDS_P1;SDS_P2;PMS_P1;PMS_P2;Temp;Humidity;BMP_temperature;BMP_pressure;BME280_temperature;BME280_humidity;BME280_pressure;Samples;Min_cycle;Max_cycle;Signal;HPM_P1;HPM_P2
2022/05/06 00:01:35;;;;;;;48.08;33.15;;;;;;;10.87;90.41;102402.59;5052573;28;20059;-53
2022/05/06 00:04:00;;;;;;;46.13;33.38;;;;;;;10.85;90.52;102402.03;5052652;28;20353;-51
2022/05/06 00:06:28;;;;;;;49.42;34.20;;;;;;;10.77;90.49;102399.78;5052623;28;20475;-50
2022/05/06 00:08:53;;;;;;;46.85;33.38;;;;;;;10.72;91.48;102395.06;5052493;28;20024;-51
2022/05/06 00:11:18;;;;;;;47.80;32.78;;;;;;;10.71;90.79;102404.47;5052143;28;20071;-50
2022/05/06 00:13:43;;;;;;;49.47;34.95;;;;;;;10.73;90.72;102405.03;5052392;28;20029;-51
2022/05/06 00:16:09;;;;;;;45.78;33.03;;;;;;;10.73;90.11;102406.94;5052117;28;20070;-51
2022/05/06 00:18:35;;;;;;;47.92;33.38;;;;;;;10.65;91.42;102410.22;5051898;28;20048;-50
2022/05/06 00:21:00;;;;;;;49.20;34.15;;;;;;;10.58;91.98;102408.53;5052884;28;20053;-51
2022/05/06 00:23:26;;;;;;;45.80;33.03;;;;;;;10.55;91.47;102406.31;5052429;28;20501;-51
2022/05/06 00:25:51;;;;;;;46.13;32.05;;;;;;;10.57;91.48;102404.09;5052049;28;20032;-52
2022/05/06 00:28:17;;;;;;;47.53;33.30;;;;;;;10.54;91.93;102415.69;5052704;28;20112;-50
2022/05/06 00:30:42;;;;;;;50.45;34.55;;;;;;;10.48;92.22;102413.19;5052557;28;20040;-52
2022/05/06 00:33:09;;;;;;;46.95;33.35;;;;;;;10.47;92.14;102411.53;5052121;28;20021;-51
2022/05/06 00:35:38;;;;;;;50.55;36.90;;;;;;;10.38;92.80;102411.19;5052234;28;20172;-52
2022/05/06 00:38:05;;;;;;;47.70;34.38;;;;;;;10.36;92.62;102416.09;5052123;28;20043;-48
2022/05/06 00:40:30;;;;;;;50.50;35.05;;;;;;;10.28;93.88;102412.75;5052104;28;20079;-51
2022/05/06 00:42:56;;;;;;;50.97;35.88;;;;;;;10.25;93.49;102412.44;5052472;28;20099;-52
2022/05/06 00:45:22;;;;;;;48.97;36.50;;;;;;;10.27;93.14;102411.06;5050887;28;20026;-49
2022/05/06 00:47:48;;;;;;;48.25;35.28;;;;;;;10.31;92.79;102405.84;5052222;28;20033;-50
2022/05/06 00:50:14;;;;;;;45.60;34.70;;;;;;;10.30;93.06;102405.03;5051866;28;20434;-50
2022/05/06 00:52:39;;;;;;;50.13;37.38;;;;;;;10.25;92.94;102402.19;5051860;28;20127;-50
2022/05/06 00:55:06;;;;;;;50.38;37.08;;;;;;;10.18;93.71;102409.91;5051999;28;20086;-52
2022/05/06 00:57:31;;;;;;;50.70;37.97;;;;;;;10.09;94.48;102401.28;5052075;28;20025;-48
2022/05/06 01:02:41;;;;;;;50.45;36.05;;;;;;;10.14;93.58;102403.25;5052189;28;20051;-52
2022/05/06 01:05:09;;;;;;;53.72;39.10;;;;;;;10.08;94.16;102410.66;5050362;28;20022;-50
2022/05/06 01:07:36;;;;;;;52.30;37.40;;;;;;;10.05;94.39;102402.91;5051945;28;20118;-51
2022/05/06 01:10:01;;;;;;;52.20;38.00;;;;;;;10.07;94.22;102411.78;5050251;28;20060;-51
2022/05/06 01:12:26;;;;;;;51.28;38.92;;;;;;;10.05;94.88;102407.59;5051510;28;20021;-49
2022/05/06 01:14:52;;;;;;;49.97;38.75;;;;;;;9.95;94.83;102408.34;5051869;28;20495;-51
2022/05/06 01:17:17;;;;;;;48.40;36.22;;;;;;;9.96;94.78;102415.53;5051960;28;20064;-49
2022/05/06 01:19:43;;;;;;;52.35;40.33;;;;;;;9.89;95.30;102415.75;5051834;28;20056;-47
2022/05/06 01:22:08;;;;;;;53.70;39.35;;;;;;;9.87;94.99;102417.13;5050377;28;20040;-50
2022/05/06 01:24:33;;;;;;;55.38;38.92;;;;;;;9.91;94.74;102415.50;5050302;28;20044;-49
2022/05/06 01:26:58;;;;;;;48.58;38.75;;;;;;;9.93;94.32;102416.91;5051317;28;20128;-50
2022/05/06 01:29:26;;;;;;;52.10;39.10;;;;;;;9.92;94.52;102423.53;5051449;28;20056;-50
2022/05/06 01:31:52;;;;;;;51.25;39.47;;;;;;;9.81;95.27;102427.28;5051498;28;20293;-50
2022/05/06 01:34:18;;;;;;;53.22;40.53;;;;;;;9.71;96.20;102414.22;5051647;28;20096;-51
2022/05/06 01:36:48;;;;;;;56.38;43.15;;;;;;;9.63;96.90;102425.75;5051793;28;20061;-52
2022/05/06 01:39:18;;;;;;;54.72;41.47;;;;;;;9.55;96.72;102423.44;5051896;28;20062;-49
2022/05/06 01:41:45;;;;;;;58.80;42.90;;;;;;;9.46;97.48;102406.50;5051782;28;20032;-52
2022/05/06 01:44:14;;;;;;;52.03;41.70;;;;;;;9.40;98.11;102410.31;5050726;28;20037;-49
2022/05/06 01:46:40;;;;;;;54.40;40.38;;;;;;;9.48;97.19;102418.97;5050715;28;20341;-52
2022/05/06 01:49:07;;;;;;;56.33;40.72;;;;;;;9.47;96.82;102420.06;5055367;28;20036;-52
2022/05/06 01:51:33;;;;;;;56.30;40.47;;;;;;;9.44;96.90;102417.81;5055089;28;20131;-52
2022/05/06 01:53:59;;;;;;;54.65;40.05;;;;;;;9.40;96.91;102418.59;5055294;28;20531;-51
2022/05/06 01:56:24;;;;;;;55.38;41.00;;;;;;;9.38;97.11;102413.31;5055238;28;20112;-50
2022/05/06 01:58:50;;;;;;;57.85;40.63;;;;;;;9.47;97.41;102428.34;5055598;28;20403;-51
2022/05/06 02:01:15;;;;;;;57.67;40.17;;;;;;;9.42;96.74;102424.69;5055250;28;20459;-52
2022/05/06 02:06:25;;;;;;;58.15;39.22;;;;;;;9.35;97.66;102425.72;5055718;28;20120;-52
2022/05/06 02:08:51;;;;;;;58.40;41.55;;;;;;;9.30;98.88;102419.31;5053679;28;20463;-52
2022/05/06 02:11:16;;;;;;;55.08;39.50;;;;;;;9.30;98.08;102427.59;5053653;28;20029;-50
2022/05/06 02:13:42;;;;;;;56.25;39.72;;;;;;;9.29;97.97;102425.91;5054895;28;20036;-52
2022/05/06 02:16:07;;;;;;;58.40;38.47;;;;;;;9.27;97.91;102417.91;5054911;28;20082;-51
2022/05/06 02:18:33;;;;;;;59.28;38.40;;;;;;;9.13;98.96;102417.47;5053301;28;20041;-52
2022/05/06 02:20:59;;;;;;;55.78;36.22;;;;;;;9.09;99.13;102421.81;5054260;28;20104;-51
2022/05/06 02:23:26;;;;;;;61.38;37.97;;;;;;;9.04;99.52;102421.78;5054757;28;20104;-51
2022/05/06 02:25:51;;;;;;;59.40;35.88;;;;;;;9.07;99.17;102415.72;5069270;22;20139;-58
2022/05/06 02:28:17;;;;;;;60.42;37.38;;;;;;;9.09;98.73;102421.81;5054982;28;20063;-58
2022/05/06 02:33:27;;;;;;;84.32;41.10;;;;;;;8.89;100.00;102425.16;5055224;28;20048;-58
2022/05/06 02:35:54;;;;;;;64.35;37.83;;;;;;;8.82;100.00;102427.28;5054725;28;20029;-57
2022/05/06 02:38:21;;;;;;;62.45;38.67;;;;;;;8.79;100.00;102425.84;5054749;28;20041;-58
2022/05/06 02:40:47;;;;;;;78.78;37.70;;;;;;;8.87;100.00;102421.81;5054627;28;20032;-58
2022/05/06 02:43:12;;;;;;;97.45;35.53;;;;;;;8.85;100.00;102424.00;5054795;28;20029;-58
2022/05/06 02:45:37;;;;;;;100.10;37.83;;;;;;;8.75;100.00;102424.72;5054631;28;20407;-58
2022/05/06 02:48:04;;;;;;;78.60;33.15;;;;;;;8.74;100.00;102425.78;5054760;28;20391;-58
2022/05/06 02:50:29;;;;;;;63.30;34.08;;;;;;;8.69;100.00;102425.75;5054445;28;20037;-57
2022/05/06 02:52:54;;;;;;;88.72;33.10;;;;;;;8.74;100.00;102429.38;5054439;28;20032;-58
2022/05/06 02:55:20;;;;;;;74.63;34.33;;;;;;;8.68;100.00;102430.41;5054515;28;20033;-58
2022/05/06 02:57:45;;;;;;;58.55;34.30;;;;;;;8.73;100.00;102437.91;5054425;28;20102;-58
2022/05/06 03:00:11;;;;;;;70.60;34.10;;;;;;;8.74;100.00;102434.06;5053247;28;20440;-58
2022/05/06 03:02:37;;;;;;;65.97;35.10;;;;;;;8.75;100.00;102430.22;5054300;28;20498;-58
2022/05/06 03:05:02;;;;;;;105.70;36.53;;;;;;;8.65;100.00;102430.91;5054057;28;20108;-58
2022/05/06 03:07:28;;;;;;;75.95;34.97;;;;;;;8.65;100.00;102428.16;5054367;28;20052;-58
2022/05/06 03:09:53;;;;;;;73.07;33.78;;;;;;;8.71;100.00;102431.81;5054217;28;20463;-58
2022/05/06 03:12:20;;;;;;;76.50;34.90;;;;;;;8.64;100.00;102432.03;5054275;28;20029;-58
2022/05/06 03:14:45;;;;;;;57.10;33.80;;;;;;;8.70;100.00;102425.47;5054311;28;20021;-58
2022/05/06 03:17:11;;;;;;;55.60;31.52;;;;;;;8.73;100.00;102433.25;5054116;28;20024;-59
2022/05/06 03:19:37;;;;;;;60.15;31.60;;;;;;;8.73;100.00;102422.22;5053959;28;20103;-58
2022/05/06 03:22:03;;;;;;;91.05;32.72;;;;;;;8.81;100.00;102423.69;5054155;28;20490;-59
2022/05/06 03:24:28;;;;;;;76.68;32.70;;;;;;;8.79;100.00;102419.50;5053793;28;20029;-59
2022/05/06 03:26:54;;;;;;;69.95;31.42;;;;;;;8.75;100.00;102421.94;5053663;28;20553;-58
2022/05/06 03:29:19;;;;;;;85.40;30.80;;;;;;;8.76;100.00;102425.53;5053943;28;20027;-58
2022/05/06 03:31:45;;;;;;;104.65;32.50;;;;;;;8.69;100.00;102420.22;5053782;28;20157;-58
2022/05/06 03:34:11;;;;;;;107.13;32.03;;;;;;;8.68;100.00;102422.13;5053994;28;20040;-58
2022/05/06 03:36:37;;;;;;;79.28;32.20;;;;;;;8.65;100.00;102424.56;5054289;28;20036;-59
2022/05/06 03:39:03;;;;;;;108.55;32.47;;;;;;;8.61;100.00;102426.16;5054513;28;20029;-59
2022/05/06 03:41:29;;;;;;;98.70;31.73;;;;;;;8.60;100.00;102424.50;5054112;28;20116;-59
2022/05/06 03:43:54;;;;;;;68.38;30.83;;;;;;;8.66;100.00;102426.25;5054091;28;20509;-59
2022/05/06 03:46:20;;;;;;;103.30;35.13;;;;;;;8.64;100.00;102429.25;5053972;28;20040;-59
2022/05/06 03:48:45;;;;;;;71.97;31.75;;;;;;;8.65;100.00;102425.38;5053898;28;20368;-58
2022/05/06 03:51:23;;;;;;;71.30;31.83;;;;;;;8.75;100.00;102435.75;5053533;28;20123;-59
2022/05/06 03:53:48;;;;;;;108.65;33.08;;;;;;;8.66;100.00;102420.72;5053409;28;20471;-59
2022/05/06 03:56:14;;;;;;;66.38;32.25;;;;;;;8.72;100.00;102430.72;5053117;28;20076;-57
2022/05/06 03:58:39;;;;;;;100.82;33.05;;;;;;;8.72;100.00;102420.53;5052580;28;20423;-57
2022/05/06 04:01:05;;;;;;;95.05;32.03;;;;;;;8.75;100.00;102441.28;5052869;28;20025;-58
2022/05/06 04:03:31;;;;;;;146.82;36.92;;;;;;;8.68;100.00;102427.66;5052632;28;20024;-58
2022/05/06 04:05:57;;;;;;;105.70;34.35;;;;;;;8.68;100.00;102426.81;5052951;28;20110;-58
2022/05/06 04:08:22;;;;;;;124.57;35.90;;;;;;;8.66;100.00;102434.53;5052954;28;20025;-58
2022/05/06 04:10:47;;;;;;;64.43;33.65;;;;;;;8.74;100.00;102428.56;5052326;28;20380;-59
2022/05/06 04:13:13;;;;;;;75.88;35.50;;;;;;;8.76;100.00;102431.91;5052707;28;20150;-58
2022/05/06 04:15:38;;;;;;;109.68;35.35;;;;;;;8.72;100.00;102431.59;5052658;28;20392;-58
2022/05/06 04:18:04;;;;;;;115.55;35.58;;;;;;;8.73;100.00;102432.41;5052430;28;20029;-58
2022/05/06 04:23:29;;;;;;;;;;;;;;;8.86;100.00;102431.19;5053043;28;20091;-58
2022/05/06 04:25:55;;;;;;;86.15;32.72;;;;;;;8.82;100.00;102436.41;5051964;28;20279;-58
2022/05/06 04:28:21;;;;;;;74.57;32.47;;;;;;;8.92;100.00;102441.22;5052222;28;20064;-58
2022/05/06 04:30:46;;;;;;;65.68;31.98;;;;;;;8.98;100.00;102434.69;5052347;28;20045;-58
2022/05/06 04:33:11;;;;;;;130.63;33.95;;;;;;;8.91;100.00;102442.31;5052389;28;20037;-58
2022/05/06 04:35:36;;;;;;;103.85;28.90;;;;;;;8.82;100.00;102444.66;5052194;28;20527;-58
2022/05/06 04:38:02;;;;;;;75.65;30.25;;;;;;;8.80;100.00;102435.81;5052487;28;20025;-58
2022/05/06 04:40:27;;;;;;;76.88;30.95;;;;;;;8.80;100.00;102443.25;5052463;28;20032;-59
2022/05/06 04:42:52;;;;;;;63.92;30.85;;;;;;;8.91;100.00;102442.31;5052263;28;20126;-58
2022/05/06 04:45:18;;;;;;;65.85;30.35;;;;;;;9.00;100.00;102438.03;5052220;28;20032;-58
2022/05/06 04:47:43;;;;;;;52.75;29.88;;;;;;;9.12;100.00;102448.94;5052404;28;20339;-58
2022/05/06 04:50:08;;;;;;;75.85;31.52;;;;;;;9.17;100.00;102448.97;5052511;28;20160;-58
2022/05/06 04:52:34;;;;;;;71.72;30.75;;;;;;;9.24;100.00;102447.97;5052456;28;20186;-58
2022/05/06 04:54:59;;;;;;;78.47;29.90;;;;;;;9.16;100.00;102455.59;5052468;28;20419;-58
2022/05/06 04:57:24;;;;;;;66.85;29.30;;;;;;;9.14;100.00;102459.72;5052229;28;20384;-58
2022/05/06 04:59:50;;;;;;;75.50;30.77;;;;;;;9.09;100.00;102452.19;5052116;28;20036;-58
2022/05/06 05:02:16;;;;;;;123.13;31.13;;;;;;;8.99;100.00;102463.94;5052493;28;20104;-59
2022/05/06 05:04:43;;;;;;;70.65;28.98;;;;;;;8.99;100.00;102458.44;5052190;28;20025;-58
2022/05/06 05:07:08;;;;;;;66.28;30.00;;;;;;;9.01;100.00;102463.69;5052418;28;20025;-58
2022/05/06 05:09:33;;;;;;;94.82;32.20;;;;;;;8.98;100.00;102465.03;5052041;28;20031;-59
2022/05/06 05:11:59;;;;;;;65.80;29.55;;;;;;;9.00;100.00;102467.53;5052127;28;20021;-58
2022/05/06 05:14:24;;;;;;;87.50;30.20;;;;;;;8.97;100.00;102479.94;5052155;28;20033;-58
2022/05/06 05:16:50;;;;;;;65.75;29.50;;;;;;;9.04;100.00;102482.50;5052412;28;20582;-59
2022/05/06 05:19:16;;;;;;;56.28;31.95;;;;;;;9.17;100.00;102482.13;5052269;28;20476;-58
2022/05/06 05:21:42;;;;;;;65.70;33.42;;;;;;;9.21;100.00;102479.66;5052304;28;20090;-58
2022/05/06 05:24:08;;;;;;;53.53;32.42;;;;;;;9.29;100.00;102489.44;5055915;28;20029;-59
2022/05/06 05:26:33;;;;;;;59.15;32.20;;;;;;;9.36;100.00;102496.44;5055626;28;20056;-58
2022/05/06 05:28:59;;;;;;;65.35;32.15;;;;;;;9.42;100.00;102488.22;5055815;28;20056;-58
2022/05/06 05:31:24;;;;;;;61.33;31.33;;;;;;;9.51;100.00;102483.91;5055896;28;20426;-58
2022/05/06 05:33:50;;;;;;;56.65;28.73;;;;;;;9.57;100.00;102488.41;5055794;28;20029;-59
2022/05/06 05:36:15;;;;;;;51.83;27.05;;;;;;;9.58;100.00;102483.72;5056019;28;20025;-58
2022/05/06 05:38:40;;;;;;;47.17;28.00;;;;;;;9.65;100.00;102482.41;5056050;28;20112;-58
2022/05/06 05:41:06;;;;;;;48.30;28.02;;;;;;;9.71;100.00;102483.31;5055723;28;20029;-58
2022/05/06 05:48:59;;;;;;;47.78;26.55;;;;;;;9.65;100.00;102485.19;5056188;28;20116;-58
2022/05/06 05:51:24;;;;;;;72.88;28.50;;;;;;;9.71;99.71;102488.00;5055434;28;20112;-59
2022/05/06 05:53:50;;;;;;;76.07;26.05;;;;;;;9.70;99.29;102498.22;5055474;28;20063;-58
2022/05/06 05:56:15;;;;;;;64.18;25.38;;;;;;;9.50;99.37;102491.38;5055460;28;20029;-58
2022/05/06 05:58:40;;;;;;;46.92;25.23;;;;;;;9.48;100.00;102495.50;5055366;28;20025;-58
2022/05/06 06:01:06;;;;;;;47.75;25.52;;;;;;;9.48;100.00;102487.19;5055633;28;20095;-58
2022/05/06 06:03:31;;;;;;;47.00;25.35;;;;;;;9.56;100.00;102489.50;5055306;28;20415;-59
2022/05/06 06:05:56;;;;;;;43.08;24.20;;;;;;;9.66;99.62;102489.63;5055261;28;20037;-58
2022/05/06 06:08:23;;;;;;;43.20;24.73;;;;;;;9.76;98.87;102488.88;5055035;28;20071;-58
2022/05/06 06:10:49;;;;;;;43.03;23.83;;;;;;;9.83;98.64;102481.22;5055255;28;20017;-58
2022/05/06 06:13:16;;;;;;;40.35;22.65;;;;;;;9.81;98.39;102466.84;5054969;28;20036;-58
2022/05/06 06:15:42;;;;;;;40.95;22.88;;;;;;;9.98;97.79;102485.22;5055097;28;20033;-58
2022/05/06 06:18:07;;;;;;;42.00;22.67;;;;;;;10.02;96.81;102482.78;5054932;28;20037;-59
2022/05/06 06:20:32;;;;;;;42.35;22.67;;;;;;;10.04;96.01;102486.13;5054956;28;20364;-58
2022/05/06 06:22:57;;;;;;;37.72;22.73;;;;;;;10.12;96.28;102493.94;5054386;28;20029;-58
2022/05/06 06:25:23;;;;;;;41.28;23.00;;;;;;;10.24;96.20;102480.78;5053906;28;20025;-58
2022/05/06 06:27:48;;;;;;;40.10;22.92;;;;;;;10.35;95.52;102489.97;5054528;28;20041;-59
2022/05/06 06:30:13;;;;;;;38.15;22.00;;;;;;;10.48;94.43;102485.13;5054923;28;20467;-59
2022/05/06 06:32:39;;;;;;;34.78;21.45;;;;;;;10.52;93.83;102487.09;5054870;28;20071;-58
2022/05/06 06:35:04;;;;;;;42.20;23.35;;;;;;;10.54;93.39;102482.13;5054633;28;20041;-59
2022/05/06 06:37:32;;;;;;;35.88;21.70;;;;;;;10.63;93.38;102481.66;5054616;28;20029;-58
2022/05/06 06:39:57;;;;;;;36.25;22.15;;;;;;;10.74;92.39;102486.13;5054717;28;20079;-58
2022/05/06 06:42:23;;;;;;;38.20;22.67;;;;;;;10.78;91.98;102481.75;5054489;28;20422;-58
2022/05/06 06:44:48;;;;;;;37.25;22.55;;;;;;;10.82;91.47;102477.31;5054416;28;20028;-59
2022/05/06 06:47:14;;;;;;;34.13;20.70;;;;;;;10.93;91.14;102487.34;5054624;28;20112;-58
2022/05/06 06:49:39;;;;;;;35.55;21.42;;;;;;;11.03;90.94;102488.50;5054342;28;20394;-59
2022/05/06 06:52:06;;;;;;;32.65;20.10;;;;;;;11.07;90.80;102493.25;5054591;28;20025;-59
2022/05/06 06:54:31;;;;;;;34.28;20.90;;;;;;;11.13;90.51;102496.06;5054523;28;20075;-62
2022/05/06 06:56:56;;;;;;;33.50;20.48;;;;;;;11.16;89.16;102498.25;5054305;28;20025;-58
2022/05/06 06:59:22;;;;;;;32.55;20.58;;;;;;;11.18;89.22;102501.59;5054220;28;20044;-58
2022/05/06 07:01:47;;;;;;;34.13;20.60;;;;;;;11.11;88.90;102512.09;5054333;28;20060;-58
2022/05/06 07:04:13;;;;;;;40.50;21.45;;;;;;;11.12;88.39;102514.59;5054009;28;20070;-59
2022/05/06 07:12:06;;;;;;;31.85;20.20;;;;;;;11.24;88.58;102520.75;5054347;28;20060;-58
2022/05/06 07:14:35;;;;;;;33.78;21.40;;;;;;;11.05;88.94;102527.84;5054123;28;20490;-58
2022/05/06 07:17:02;;;;;;;31.20;20.30;;;;;;;10.96;89.96;102524.75;5054032;28;20028;-59
2022/05/06 07:19:28;;;;;;;35.65;21.63;;;;;;;10.96;90.30;102524.75;5054325;28;20021;-58
2022/05/06 07:21:53;;;;;;;33.20;21.83;;;;;;;10.97;90.19;102529.19;5053918;28;20032;-59
2022/05/06 07:24:19;;;;;;;34.30;21.30;;;;;;;10.88;89.88;102533.56;5052455;28;20036;-59
2022/05/06 07:26:46;;;;;;;33.15;21.20;;;;;;;10.84;90.42;102532.44;5052066;28;20403;-58
2022/05/06 07:29:11;;;;;;;32.85;21.23;;;;;;;10.79;91.19;102535.16;5053990;28;20037;-59
2022/05/06 07:31:37;;;;;;;35.22;21.75;;;;;;;10.82;91.39;102532.69;5052439;28;20028;-57
2022/05/06 07:34:02;;;;;;;32.80;21.33;;;;;;;10.93;91.54;102534.44;5053565;28;20082;-58
2022/05/06 07:36:28;;;;;;;33.17;21.35;;;;;;;10.91;90.18;102541.34;5053802;28;20021;-58
2022/05/06 07:38:53;;;;;;;35.50;21.33;;;;;;;10.99;89.77;102546.38;5053602;28;20408;-59
2022/05/06 07:41:19;;;;;;;32.25;21.85;;;;;;;11.03;90.00;102550.28;5053631;28;20041;-59
2022/05/06 07:43:44;;;;;;;32.92;21.95;;;;;;;11.14;89.29;102555.88;5053536;28;20468;-58
2022/05/06 07:46:10;;;;;;;34.83;20.75;;;;;;;11.23;89.47;102557.06;5053043;28;20032;-59
2022/05/06 07:48:36;;;;;;;33.25;20.55;;;;;;;11.36;88.49;102559.31;5053602;28;20025;-59
2022/05/06 07:51:01;;;;;;;33.55;22.13;;;;;;;11.15;89.67;102558.38;5053528;28;20063;-59
2022/05/06 07:53:27;;;;;;;35.67;22.80;;;;;;;10.94;90.28;102562.97;5053619;28;20112;-59
2022/05/06 07:55:52;;;;;;;34.17;23.63;;;;;;;10.88;90.82;102564.00;5053465;28;20059;-59
2022/05/06 07:58:17;;;;;;;36.22;24.35;;;;;;;10.89;90.71;102560.16;5053337;28;20075;-59
2022/05/06 08:00:42;;;;;;;37.83;25.25;;;;;;;10.79;91.37;102560.91;5053287;28;20357;-59
2022/05/06 08:05:56;;;;;;;36.30;23.27;;;;;;;10.99;91.37;102557.44;5053163;28;20079;-59
2022/05/06 08:08:23;;;;;;;37.13;24.40;;;;;;;11.07;91.08;102553.34;5053514;28;20033;-59
2022/05/06 08:10:48;;;;;;;38.80;24.70;;;;;;;11.25;90.81;102554.81;5053064;28;20128;-59
2022/05/06 08:13:14;;;;;;;37.35;24.88;;;;;;;11.50;89.54;102558.84;5053008;28;20056;-59
2022/05/06 08:15:39;;;;;;;36.53;23.70;;;;;;;11.77;88.28;102560.59;5052801;28;20471;-59
2022/05/06 08:18:05;;;;;;;35.83;24.13;;;;;;;12.06;86.94;102563.75;5052894;28;20029;-61
2022/05/06 08:20:31;;;;;;;35.40;23.58;;;;;;;12.34;85.35;102572.66;5052901;28;20017;-58
2022/05/06 08:22:56;;;;;;;38.38;25.38;;;;;;;12.54;84.18;102551.59;5052804;28;20336;-58
2022/05/06 08:25:21;;;;;;;36.58;24.08;;;;;;;12.76;83.70;102557.69;5052421;28;20017;-59
2022/05/06 08:27:48;;;;;;;35.90;24.23;;;;;;;12.94;82.74;102549.88;5052786;28;20102;-58
2022/05/06 08:30:13;;;;;;;36.13;24.52;;;;;;;13.20;82.42;102555.38;5052523;28;20021;-58
2022/05/06 08:32:39;;;;;;;36.30;23.75;;;;;;;13.45;81.19;102562.84;5052959;28;20438;-58
2022/05/06 08:35:06;;;;;;;36.15;24.67;;;;;;;13.62;79.22;102556.94;5052561;28;20025;-59
2022/05/06 08:37:42;;;;;;;36.08;24.08;;;;;;;13.72;78.24;102547.69;5052514;28;20032;-58
2022/05/06 08:40:15;;;;;;;35.63;23.48;;;;;;;13.81;77.22;102548.75;5052646;28;20100;-59
2022/05/06 08:42:40;;;;;;;35.00;23.20;;;;;;;14.03;76.79;102548.34;5052302;28;20041;-58
2022/05/06 08:50:53;;;;;;;35.40;23.80;;;;;;;14.10;76.13;102536.09;5052896;28;20455;-59
2022/05/06 08:53:26;;;;;;;36.30;24.80;;;;;;;13.82;76.75;102532.91;5052350;28;20029;-59
2022/05/06 08:55:55;;;;;;;38.63;26.23;;;;;;;13.75;77.97;102533.22;5052634;28;20112;-59
2022/05/06 08:58:22;;;;;;;37.25;25.02;;;;;;;13.88;78.20;102534.53;5056589;28;20476;-59
2022/05/06 09:00:47;;;;;;;36.85;24.98;;;;;;;14.01;77.73;102528.34;5056408;28;20024;-59
2022/05/06 09:03:15;;;;;;;37.28;25.00;;;;;;;14.13;76.87;102529.91;5056843;28;20104;-59
2022/05/06 09:06:29;;;;;;;36.67;24.95;;;;;;;14.28;77.12;102526.19;5056250;28;20112;-61
2022/05/06 09:08:57;;;;;;;36.03;24.23;;;;;;;14.33;75.35;102529.78;5056384;28;20033;-61
2022/05/06 09:16:39;;;;;;;34.67;24.80;;;;;;;14.36;75.35;102528.34;5056542;28;20400;-59
2022/05/06 09:17:21;;;;;;;34.95;24.35;;;;;;;14.60;75.48;102536.78;5056213;28;20044;-59
2022/05/06 09:19:47;;;;;;;35.53;23.65;;;;;;;14.69;74.69;102533.41;5056030;28;20100;-59
2022/05/06 09:22:13;;;;;;;34.83;23.35;;;;;;;14.79;73.99;102534.13;5056110;28;20567;-59
2022/05/06 09:24:47;;;;;;;35.83;24.50;;;;;;;14.63;73.61;102535.38;5055688;28;20108;-59
2022/05/06 09:27:17;;;;;;;36.40;23.88;;;;;;;14.71;74.06;102532.00;5054442;28;20148;-59
2022/05/06 09:29:49;;;;;;;37.92;25.67;;;;;;;14.69;73.75;102536.19;5055867;28;20475;-59
2022/05/06 09:32:41;;;;;;;34.78;23.67;;;;;;;14.71;73.79;102536.72;5054598;28;20036;-58
2022/05/06 09:35:07;;;;;;;35.83;24.30;;;;;;;14.74;73.71;102528.59;5053936;28;20045;-59
2022/05/06 09:37:39;;;;;;;33.42;23.63;;;;;;;14.77;74.00;102524.41;5055866;28;20035;-59
2022/05/06 09:40:11;;;;;;;35.57;23.43;;;;;;;14.83;73.59;102514.88;5055783;28;20040;-59
2022/05/06 09:42:44;;;;;;;33.95;22.80;;;;;;;14.92;72.78;102517.84;5055839;28;20256;-59
2022/05/06 09:45:14;;;;;;;36.95;25.15;;;;;;;15.09;73.30;102507.06;5055341;28;20364;-59
2022/05/06 09:47:40;;;;;;;34.00;23.27;;;;;;;15.09;72.06;102507.06;5055488;28;20495;-59
2022/05/06 09:50:07;;;;;;;36.05;23.88;;;;;;;15.15;71.78;102510.63;5055372;28;20037;-59
2022/05/06 09:52:33;;;;;;;35.97;24.13;;;;;;;15.26;71.52;102511.34;5055545;28;20033;-60
2022/05/06 09:55:00;;;;;;;34.15;22.92;;;;;;;15.41;71.58;102513.09;5055512;28;20044;-59
2022/05/06 09:57:25;;;;;;;35.95;25.08;;;;;;;15.44;70.62;102516.13;5053917;28;20029;-59
2022/05/06 09:59:51;;;;;;;35.35;23.50;;;;;;;15.55;70.50;102508.44;5055262;28;20047;-59
2022/05/06 10:02:17;;;;;;;34.30;23.70;;;;;;;15.64;70.15;102511.41;5055209;28;20033;-59
2022/05/06 10:04:43;;;;;;;33.17;23.00;;;;;;;15.73;69.85;102504.00;5055402;28;20108;-59
2022/05/06 10:07:14;;;;;;;32.78;22.35;;;;;;;15.89;69.70;102501.88;5055202;28;20115;-59
2022/05/06 10:09:56;;;;;;;34.78;23.55;;;;;;;16.06;68.80;102503.28;5054587;28;20135;-59
2022/05/06 10:12:23;;;;;;;30.38;21.42;;;;;;;16.20;67.40;102509.75;5055062;28;20037;-58
2022/05/06 10:14:50;;;;;;;32.53;21.02;;;;;;;16.38;67.54;102498.84;5055014;28;20025;-59
2022/05/06 10:17:50;;;;;;;31.67;20.27;;;;;;;16.58;68.09;102508.84;5054993;28;20099;-60
2022/05/06 10:20:34;;;;;;;31.75;21.73;;;;;;;16.56;67.17;102499.94;5055093;28;20448;-59
2022/05/06 10:23:15;;;;;;;33.30;23.70;;;;;;;16.48;66.56;102490.28;5054910;28;20414;-59
2022/05/06 10:25:40;;;;;;;32.28;21.77;;;;;;;16.56;65.94;102499.94;5054731;28;20056;-58
2022/05/06 10:34:15;;;;;;;28.27;18.60;;;;;;;16.94;64.16;102477.44;5054761;28;20114;-59
2022/05/06 10:36:51;;;;;;;27.80;19.30;;;;;;;17.07;63.52;102480.56;5054597;28;20049;-60
2022/05/06 10:39:20;;;;;;;28.02;19.02;;;;;;;17.07;62.18;102483.34;5054407;28;20029;-58
2022/05/06 10:42:08;;;;;;;27.88;18.90;;;;;;;17.05;63.49;102485.63;5054276;28;20079;-59
2022/05/06 10:44:40;;;;;;;25.27;17.02;;;;;;;17.10;62.18;102480.75;5054407;28;20103;-59
2022/05/06 10:47:12;;;;;;;26.40;17.60;;;;;;;17.28;61.92;102479.00;5054516;28;20388;-58
2022/05/06 10:49:40;;;;;;;28.05;17.90;;;;;;;17.43;59.97;102483.41;5054277;28;20025;-59
2022/05/06 10:52:23;;;;;;;27.27;18.08;;;;;;;17.47;61.47;102475.25;5054548;28;20036;-59
2022/05/06 10:54:56;;;;;;;26.67;17.95;;;;;;;17.59;61.19;102469.09;5054519;28;20020;-59
2022/05/06 10:57:23;;;;;;;28.97;19.93;;;;;;;17.71;61.22;102455.34;5054334;28;20033;-59
2022/05/06 11:00:00;;;;;;;30.65;20.45;;;;;;;17.84;61.03;102458.44;5054020;28;20028;-59
2022/05/06 11:02:28;;;;;;;28.63;18.85;;;;;;;17.92;60.30;102455.72;5054252;28;20029;-59
2022/05/06 11:04:56;;;;;;;26.15;16.98;;;;;;;17.95;58.54;102454.25;5054244;28;20103;-59
2022/05/06 11:07:21;;;;;;;26.20;17.23;;;;;;;18.01;57.96;102457.78;5054397;28;20028;-59
2022/05/06 11:09:47;;;;;;;26.02;17.17;;;;;;;17.99;57.48;102449.72;5053998;28;20051;-59
2022/05/06 11:12:31;;;;;;;24.98;16.10;;;;;;;18.07;58.62;102457.34;5053829;28;20048;-59
2022/05/06 11:14:56;;;;;;;;;;;;;;;18.13;57.61;102460.00;5054270;28;20032;-59
2022/05/06 11:17:22;;;;;;;24.55;15.98;;;;;;;18.14;57.71;102461.66;5053803;28;19913;-59
2022/05/06 11:19:48;;;;;;;24.60;15.85;;;;;;;18.26;56.27;102450.72;5052794;28;20447;-59
2022/05/06 11:22:14;;;;;;;25.80;16.40;;;;;;;18.34;56.13;102449.94;5053634;28;20365;-59
2022/05/06 11:24:39;;;;;;;24.33;16.00;;;;;;;18.22;55.77;102450.53;5053632;28;20074;-59
2022/05/06 11:27:17;;;;;;;24.42;15.98;;;;;;;18.17;56.45;102438.63;5053278;28;20051;-58
2022/05/06 11:29:51;;;;;;;24.77;15.88;;;;;;;18.26;56.17;102447.91;5054448;28;20073;-60
2022/05/06 11:32:17;;;;;;;24.55;15.98;;;;;;;18.17;54.88;102430.22;5053496;28;20020;-59
2022/05/06 11:35:09;;;;;;;24.25;14.82;;;;;;;18.31;56.78;102442.16;5053513;28;20426;-59
2022/05/06 11:37:39;;;;;;;23.25;14.75;;;;;;;18.29;53.53;102433.25;5035223;28;20444;-59
2022/05/06 11:40:32;;;;;;;22.00;14.27;;;;;;;18.41;53.55;102427.06;5053513;28;20063;-59
2022/05/06 11:42:59;;;;;;;24.63;14.95;;;;;;;18.62;54.43;102426.47;5053330;28;20036;-59
2022/05/06 11:48:14;;;;;;;25.42;15.70;;;;;;;18.92;54.70;102421.16;5053252;28;20352;-59
2022/05/06 11:50:41;;;;;;;25.15;16.13;;;;;;;19.06;52.96;102427.50;5053183;28;20041;-60
2022/05/06 11:53:08;;;;;;;25.35;16.08;;;;;;;19.27;52.30;102419.28;5053074;28;20502;-59